createdAt,value
2022-08-11T00:00:36.501Z,24.21
2022-08-11T00:01:36.466Z,24.28
2022-08-11T00:02:36.537Z,24.21
2022-08-11T00:03:43.163Z,24.21
2022-08-11T00:04:36.389Z,24.24
2022-08-11T00:05:36.360Z,24.23
2022-08-11T00:06:36.332Z,24.29
2022-08-11T00:07:36.309Z,24.26
2022-08-11T00:08:36.279Z,24.23
2022-08-11T00:09:39.190Z,24.11
2022-08-11T00:10:36.227Z,24.18
2022-08-11T00:11:36.200Z,24.16
2022-08-11T00:12:36.349Z,24.17
2022-08-11T00:13:36.156Z,24.17
2022-08-11T00:14:37.876Z,24.11
2022-08-11T00:15:36.091Z,24.06
2022-08-11T00:16:36.058Z,24.06
2022-08-11T00:17:36.032Z,24.10
2022-08-11T00:18:36.007Z,23.93
2022-08-11T00:20:12.232Z,23.95
2022-08-11T00:20:35.950Z,24.03
2022-08-11T00:22:04.534Z,23.95
2022-08-11T00:22:35.895Z,24.01
2022-08-11T00:23:35.868Z,23.92
2022-08-11T00:24:52.067Z,23.86
2022-08-11T00:25:35.817Z,23.91
2022-08-11T00:26:35.786Z,23.83
2022-08-11T00:27:35.758Z,23.81
2022-08-11T00:28:35.729Z,23.86
2022-08-11T00:29:35.702Z,23.84
2022-08-11T00:30:35.669Z,23.73
2022-08-11T00:31:35.643Z,23.80
2022-08-11T00:32:35.685Z,23.74
2022-08-11T00:33:41.445Z,23.69
2022-08-11T00:34:35.571Z,23.68
2022-08-11T00:35:50.977Z,23.61
2022-08-11T00:36:35.510Z,23.73
2022-08-11T00:37:35.475Z,23.71
2022-08-11T00:38:35.448Z,23.54
2022-08-11T00:39:35.466Z,23.44
2022-08-11T00:40:35.399Z,23.40
2022-08-11T00:41:35.373Z,23.36
2022-08-11T00:42:35.341Z,23.37
2022-08-11T00:43:35.311Z,23.32
2022-08-11T00:44:35.298Z,23.21
2022-08-11T00:45:35.259Z,23.21
2022-08-11T00:46:35.224Z,23.15
2022-08-11T00:47:35.200Z,23.17
2022-08-11T00:48:35.170Z,23.24
2022-08-11T00:49:35.143Z,23.21
2022-08-11T00:50:35.110Z,23.06
2022-08-11T00:52:04.760Z,23.12
2022-08-11T00:52:35.057Z,23.10
2022-08-11T00:53:35.029Z,22.98
2022-08-11T00:54:35.000Z,22.96
2022-08-11T00:55:34.972Z,22.91
2022-08-11T00:56:34.945Z,22.90
2022-08-11T00:57:37.457Z,22.80
2022-08-11T00:58:34.965Z,22.78
2022-08-11T00:59:36.052Z,22.78
2022-08-11T01:00:34.946Z,22.73
2022-08-11T01:01:34.825Z,22.65
2022-08-11T01:02:34.777Z,22.69
2022-08-11T01:03:34.752Z,22.59
2022-08-11T01:04:34.721Z,22.51
2022-08-11T01:05:34.694Z,22.57
2022-08-11T01:06:34.661Z,22.69
2022-08-11T01:08:02.766Z,22.48
2022-08-11T01:08:34.635Z,22.53
2022-08-11T01:09:34.582Z,22.60
2022-08-11T01:10:34.559Z,22.51
2022-08-11T01:11:34.532Z,22.57
2022-08-11T01:12:34.493Z,22.53
2022-08-11T01:13:34.468Z,22.54
2022-08-11T01:14:34.799Z,22.53
2022-08-11T01:15:34.434Z,22.51
2022-08-11T01:16:34.382Z,22.54
2022-08-11T01:17:34.353Z,22.48
2022-08-11T01:18:34.321Z,22.48
2022-08-11T01:19:34.297Z,22.45
2022-08-11T01:20:47.290Z,22.41
2022-08-11T01:21:34.238Z,22.39
2022-08-11T01:22:34.208Z,22.43
2022-08-11T01:23:34.183Z,22.44
2022-08-11T01:24:34.159Z,22.41
2022-08-11T01:25:34.125Z,22.35
2022-08-11T01:26:34.092Z,22.38
2022-08-11T01:27:34.084Z,22.41
2022-08-11T01:28:34.036Z,22.32
2022-08-11T01:29:34.009Z,22.35
2022-08-11T01:30:33.980Z,22.38
2022-08-11T01:31:33.954Z,22.23
2022-08-11T01:32:33.922Z,22.30
2022-08-11T01:33:33.893Z,22.29
2022-08-11T01:34:33.864Z,22.25
2022-08-11T01:35:33.839Z,22.22
2022-08-11T01:36:33.810Z,22.18
2022-08-11T01:37:33.779Z,22.13
2022-08-11T01:38:33.754Z,22.18
2022-08-11T01:39:33.754Z,22.18
2022-08-11T01:40:33.692Z,22.18
2022-08-11T01:41:33.676Z,22.13
2022-08-11T01:42:33.638Z,22.14
2022-08-11T01:43:33.613Z,22.23
2022-08-11T01:44:33.581Z,22.23
2022-08-11T01:45:33.552Z,22.17
2022-08-11T01:46:33.521Z,22.04
2022-08-11T01:47:33.495Z,22.04
2022-08-11T01:48:33.469Z,22.02
2022-08-11T01:50:08.717Z,22.11
2022-08-11T01:50:33.408Z,21.98
2022-08-11T01:51:33.382Z,22.06
2022-08-11T01:52:34.701Z,22.02
2022-08-11T01:53:33.329Z,22.00
2022-08-11T01:54:33.290Z,22.02
2022-08-11T01:55:33.264Z,21.95
2022-08-11T01:56:33.232Z,22.00
2022-08-11T01:57:33.204Z,21.89
2022-08-11T01:58:40.778Z,21.85
2022-08-11T01:59:33.152Z,21.79
2022-08-11T02:00:33.202Z,21.77
2022-08-11T02:01:33.091Z,21.73
2022-08-11T02:02:33.129Z,21.73
2022-08-11T02:03:33.033Z,21.70
2022-08-11T02:04:33.008Z,21.75
2022-08-11T02:05:32.974Z,21.62
2022-08-11T02:06:32.946Z,21.61
2022-08-11T02:07:32.934Z,21.57
2022-08-11T02:08:33.702Z,21.58
2022-08-11T02:09:32.857Z,21.57
2022-08-11T02:10:35.349Z,21.55
2022-08-11T02:11:35.703Z,21.57
2022-08-11T02:12:32.767Z,21.54
2022-08-11T02:13:35.671Z,21.54
2022-08-11T02:14:32.712Z,21.52
2022-08-11T02:15:32.685Z,21.52
2022-08-11T02:16:32.651Z,21.45
2022-08-11T02:17:32.622Z,21.51
2022-08-11T02:18:32.593Z,21.36
2022-08-11T02:19:32.565Z,21.45
2022-08-11T02:20:32.532Z,21.45
2022-08-11T02:21:32.503Z,21.42
2022-08-11T02:22:32.536Z,21.40
2022-08-11T02:24:07.166Z,21.30
2022-08-11T02:24:32.421Z,21.39
2022-08-11T02:25:32.404Z,21.35
2022-08-11T02:26:32.375Z,21.30
2022-08-11T02:27:32.342Z,21.22
2022-08-11T02:28:34.732Z,21.20
2022-08-11T02:29:32.274Z,21.24
2022-08-11T02:30:32.247Z,21.25
2022-08-11T02:32:25.463Z,21.15
2022-08-11T02:32:32.187Z,21.21
2022-08-11T02:33:32.154Z,21.17
2022-08-11T02:34:32.125Z,21.14
2022-08-11T02:35:32.103Z,21.12
2022-08-11T02:36:32.067Z,21.18
2022-08-11T02:37:32.038Z,21.11
2022-08-11T02:38:32.009Z,21.06
2022-08-11T02:39:32.049Z,21.06
2022-08-11T02:40:31.948Z,21.03
2022-08-11T02:41:31.923Z,21.03
2022-08-11T02:42:35.576Z,21.15
2022-08-11T02:43:31.861Z,21.12
2022-08-11T02:44:31.832Z,21.11
2022-08-11T02:45:31.803Z,21.03
2022-08-11T02:46:31.777Z,20.99
2022-08-11T02:47:31.743Z,21.02
2022-08-11T02:48:31.710Z,21.02
2022-08-11T02:49:31.683Z,21.00
2022-08-11T02:50:31.653Z,21.00
2022-08-11T02:51:31.625Z,20.87
2022-08-11T02:52:31.594Z,20.87
2022-08-11T02:53:31.566Z,20.93
2022-08-11T02:54:31.544Z,20.84
2022-08-11T02:55:55.568Z,20.93
2022-08-11T02:56:31.476Z,20.82
2022-08-11T02:57:31.446Z,20.82
2022-08-11T02:58:31.417Z,20.77
2022-08-11T02:59:31.387Z,20.81
2022-08-11T03:00:31.359Z,20.82
2022-08-11T03:01:31.361Z,20.78
2022-08-11T03:02:31.298Z,20.77
2022-08-11T03:03:31.285Z,20.75
2022-08-11T03:04:37.396Z,20.72
2022-08-11T03:05:31.215Z,20.66
2022-08-11T03:06:31.178Z,20.60
2022-08-11T03:07:31.153Z,20.60
2022-08-11T03:08:31.123Z,20.62
2022-08-11T03:09:31.093Z,20.59
2022-08-11T03:10:31.061Z,20.55
2022-08-11T03:11:31.034Z,20.52
2022-08-11T03:12:31.002Z,20.62
2022-08-11T03:13:30.973Z,20.47
2022-08-11T03:14:30.943Z,20.44
2022-08-11T03:15:30.915Z,20.50
2022-08-11T03:16:30.884Z,20.47
2022-08-11T03:17:30.851Z,20.41
2022-08-11T03:18:30.819Z,20.44
2022-08-11T03:19:30.791Z,20.40
2022-08-11T03:20:38.082Z,20.41
2022-08-11T03:22:01.729Z,20.39
2022-08-11T03:22:30.702Z,20.43
2022-08-11T03:23:30.676Z,20.28
2022-08-11T03:24:30.643Z,20.25
2022-08-11T03:25:30.623Z,20.28
2022-08-11T03:26:30.584Z,20.29
2022-08-11T03:27:30.562Z,20.26
2022-08-11T03:28:30.524Z,20.24
2022-08-11T03:29:30.498Z,20.16
2022-08-11T03:30:30.463Z,20.31
2022-08-11T03:31:30.439Z,20.19
2022-08-11T03:32:30.405Z,20.18
2022-08-11T03:33:30.372Z,20.21
2022-08-11T03:34:30.341Z,20.18
2022-08-11T03:35:30.312Z,20.19
2022-08-11T03:36:30.304Z,20.21
2022-08-11T03:37:30.253Z,20.10
2022-08-11T03:38:30.452Z,20.13
2022-08-11T03:39:30.239Z,20.14
2022-08-11T03:40:30.164Z,20.07
2022-08-11T03:42:03.715Z,20.09
2022-08-11T03:42:30.103Z,20.07
2022-08-11T03:43:30.070Z,20.13
2022-08-11T03:44:30.047Z,20.00
2022-08-11T03:45:30.013Z,20.02
2022-08-11T03:46:29.993Z,20.03
2022-08-11T03:47:29.960Z,20.02
2022-08-11T03:48:29.924Z,20.00
2022-08-11T03:49:29.893Z,19.94
2022-08-11T03:50:29.865Z,19.96
2022-08-11T03:51:44.724Z,19.99
2022-08-11T03:52:29.803Z,19.96
2022-08-11T03:53:29.773Z,19.89
2022-08-11T03:54:29.743Z,19.88
2022-08-11T03:55:29.713Z,19.89
2022-08-11T03:56:29.682Z,19.88
2022-08-11T03:57:29.651Z,19.88
2022-08-11T03:58:29.619Z,19.89
2022-08-11T03:59:29.592Z,19.84
2022-08-11T04:00:29.566Z,19.79
2022-08-11T04:01:29.592Z,19.84
2022-08-11T04:02:29.501Z,19.84
2022-08-11T04:03:31.448Z,19.84
2022-08-11T04:04:29.439Z,19.77
2022-08-11T04:05:29.411Z,19.76
2022-08-11T04:06:29.377Z,19.76
2022-08-11T04:07:29.348Z,19.76
2022-08-11T04:08:34.258Z,19.77
2022-08-11T04:09:29.289Z,19.73
2022-08-11T04:10:29.261Z,19.73
2022-08-11T04:11:29.228Z,19.67
2022-08-11T04:12:36.712Z,19.64
2022-08-11T04:13:29.167Z,19.67
2022-08-11T04:14:29.137Z,19.63
2022-08-11T04:15:29.112Z,19.62
2022-08-11T04:16:29.077Z,19.67
2022-08-11T04:17:29.239Z,19.63
2022-08-11T04:18:29.472Z,19.64
2022-08-11T04:19:28.983Z,19.70
2022-08-11T04:20:28.951Z,19.64
2022-08-11T04:21:28.922Z,19.67
2022-08-11T04:22:28.980Z,19.69
2022-08-11T04:24:36.299Z,19.69
2022-08-11T04:24:37.665Z,19.59
2022-08-11T04:25:28.805Z,19.63
2022-08-11T04:26:28.777Z,19.63
2022-08-11T04:27:36.911Z,19.63
2022-08-11T04:28:31.323Z,19.58
2022-08-11T04:29:36.432Z,19.62
2022-08-11T04:30:28.651Z,19.58
2022-08-11T04:31:51.247Z,19.63
2022-08-11T04:32:28.652Z,19.51
2022-08-11T04:33:28.562Z,19.62
2022-08-11T04:34:28.531Z,19.54
2022-08-11T04:35:28.502Z,19.54
2022-08-11T04:36:28.471Z,19.59
2022-08-11T04:37:28.436Z,19.52
2022-08-11T04:38:28.404Z,19.55
2022-08-11T04:39:28.422Z,19.55
2022-08-11T04:40:28.347Z,19.55
2022-08-11T04:41:28.312Z,19.56
2022-08-11T04:42:31.488Z,19.54
2022-08-11T04:43:28.256Z,19.51
2022-08-11T04:44:28.222Z,19.58
2022-08-11T04:45:28.197Z,19.55
2022-08-11T04:46:28.163Z,19.55
2022-08-11T04:47:28.133Z,19.62
2022-08-11T04:48:28.102Z,19.48
2022-08-11T04:49:33.825Z,19.56
2022-08-11T04:50:28.040Z,19.58
2022-08-11T04:51:28.012Z,19.58
2022-08-11T04:52:37.582Z,19.55
2022-08-11T04:53:28.812Z,19.54
2022-08-11T04:54:28.768Z,19.55
2022-08-11T04:55:27.895Z,19.54
2022-08-11T04:56:27.867Z,19.63
2022-08-11T04:57:27.826Z,19.56
2022-08-11T04:58:31.350Z,19.62
2022-08-11T04:59:27.766Z,19.58
2022-08-11T05:00:27.737Z,19.62
2022-08-11T05:01:27.756Z,19.62
2022-08-11T05:02:27.676Z,19.63
2022-08-11T05:03:27.649Z,19.62
2022-08-11T05:04:27.620Z,19.66
2022-08-11T05:05:27.588Z,19.66
2022-08-11T05:06:27.567Z,19.71
2022-08-11T05:07:27.525Z,19.63
2022-08-11T05:08:27.493Z,19.66
2022-08-11T05:09:27.463Z,19.66
2022-08-11T05:10:27.435Z,19.64
2022-08-11T05:11:27.406Z,19.62
2022-08-11T05:12:27.374Z,19.56
2022-08-11T05:13:27.345Z,19.62
2022-08-11T05:14:27.311Z,19.63
2022-08-11T05:15:27.284Z,19.63
2022-08-11T05:16:27.251Z,19.64
2022-08-11T05:17:27.220Z,19.70
2022-08-11T05:18:27.190Z,19.62
2022-08-11T05:19:27.158Z,19.71
2022-08-11T05:20:27.132Z,19.71
2022-08-11T05:21:27.096Z,19.73
2022-08-11T05:22:27.067Z,19.70
2022-08-11T05:23:27.041Z,19.74
2022-08-11T05:24:27.011Z,19.73
2022-08-11T05:26:45.072Z,19.73
2022-08-11T05:26:46.182Z,19.76
2022-08-11T05:27:26.918Z,19.71
2022-08-11T05:28:26.887Z,19.81
2022-08-11T05:29:26.855Z,19.81
2022-08-11T05:30:26.823Z,19.79
2022-08-11T05:31:26.796Z,19.76
2022-08-11T05:32:26.763Z,19.81
2022-08-11T05:33:26.735Z,19.76
2022-08-11T05:34:26.702Z,19.81
2022-08-11T05:36:00.552Z,19.86
2022-08-11T05:36:26.640Z,19.81
2022-08-11T05:37:27.456Z,19.84
2022-08-11T05:38:26.578Z,19.91
2022-08-11T05:39:36.427Z,19.95
2022-08-11T05:40:26.519Z,19.88
2022-08-11T05:41:26.489Z,19.94
2022-08-11T05:42:29.866Z,19.92
2022-08-11T05:43:26.430Z,19.88
2022-08-11T05:44:26.399Z,19.91
2022-08-11T05:45:26.373Z,19.91
2022-08-11T05:46:26.341Z,19.94
2022-08-11T05:47:26.308Z,19.99
2022-08-11T05:48:26.280Z,19.95
2022-08-11T05:49:26.246Z,19.99
2022-08-11T05:50:31.167Z,19.95
2022-08-11T05:51:30.314Z,20.03
2022-08-11T05:52:31.921Z,20.03
2022-08-11T05:53:26.129Z,19.99
2022-08-11T05:54:28.205Z,20.07
2022-08-11T05:55:26.070Z,20.03
2022-08-11T05:56:26.037Z,20.07
2022-08-11T05:57:50.104Z,20.07
2022-08-11T05:58:25.977Z,20.14
2022-08-11T05:59:25.941Z,20.16
2022-08-11T06:00:25.915Z,20.13
2022-08-11T06:01:25.933Z,20.14
2022-08-11T06:02:25.865Z,20.21
2022-08-11T06:03:25.841Z,20.14
2022-08-11T06:04:25.794Z,20.19
2022-08-11T06:05:25.762Z,20.19
2022-08-11T06:06:25.737Z,20.19
2022-08-11T06:07:25.702Z,20.29
2022-08-11T06:08:25.670Z,20.29
2022-08-11T06:09:25.643Z,20.34
2022-08-11T06:10:25.649Z,20.29
2022-08-11T06:11:43.997Z,20.29
2022-08-11T06:12:25.557Z,20.36
2022-08-11T06:13:25.522Z,20.37
2022-08-11T06:14:25.488Z,20.41
2022-08-11T06:15:25.464Z,20.44
2022-08-11T06:16:25.434Z,20.44
2022-08-11T06:17:25.402Z,20.55
2022-08-11T06:18:25.378Z,20.56
2022-08-11T06:19:25.346Z,20.60
2022-08-11T06:20:25.356Z,20.62
2022-08-11T06:21:25.286Z,20.62
2022-08-11T06:22:25.257Z,20.59
2022-08-11T06:23:25.230Z,20.63
2022-08-11T06:24:25.197Z,20.74
2022-08-11T06:25:25.163Z,20.72
2022-08-11T06:26:25.133Z,20.81
2022-08-11T06:27:25.105Z,20.82
2022-08-11T06:28:25.075Z,20.78
2022-08-11T06:29:37.974Z,20.92
2022-08-11T06:30:25.015Z,20.85
2022-08-11T06:31:24.982Z,20.93
2022-08-11T06:32:24.952Z,20.87
2022-08-11T06:33:24.925Z,20.99
2022-08-11T06:34:27.420Z,21.02
2022-08-11T06:35:24.863Z,21.00
2022-08-11T06:36:24.832Z,21.11
2022-08-11T06:37:24.817Z,21.07
2022-08-11T06:38:24.810Z,21.07
2022-08-11T06:39:24.805Z,21.18
2022-08-11T06:40:24.733Z,21.14
2022-08-11T06:41:24.685Z,21.18
2022-08-11T06:42:24.726Z,21.21
2022-08-11T06:43:24.629Z,21.20
2022-08-11T06:44:24.595Z,21.22
2022-08-11T06:45:24.568Z,21.25
2022-08-11T06:46:28.445Z,21.33
2022-08-11T06:47:24.508Z,21.40
2022-08-11T06:48:24.483Z,21.42
2022-08-11T06:49:24.449Z,21.43
2022-08-11T06:50:24.423Z,21.48
2022-08-11T06:51:24.389Z,21.52
2022-08-11T06:52:35.065Z,21.54
2022-08-11T06:53:24.331Z,21.58
2022-08-11T06:54:24.300Z,21.62
2022-08-11T06:55:57.282Z,21.70
2022-08-11T06:56:24.246Z,21.73
2022-08-11T06:57:31.518Z,21.75
2022-08-11T06:58:24.184Z,21.69
2022-08-11T06:59:24.157Z,21.77
2022-08-11T07:00:24.125Z,21.89
2022-08-11T07:01:24.153Z,21.89
2022-08-11T07:02:27.951Z,21.89
2022-08-11T07:03:24.068Z,21.98
2022-08-11T07:04:24.009Z,21.93
2022-08-11T07:05:23.989Z,22.00
2022-08-11T07:06:23.955Z,22.08
2022-08-11T07:07:23.926Z,22.20
2022-08-11T07:08:33.538Z,22.15
2022-08-11T07:09:23.869Z,22.13
2022-08-11T07:10:23.850Z,22.14
2022-08-11T07:11:23.806Z,22.28
2022-08-11T07:12:23.781Z,22.30
2022-08-11T07:13:44.607Z,22.39
2022-08-11T07:14:23.726Z,22.43
2022-08-11T07:15:23.694Z,22.47
2022-08-11T07:16:25.796Z,22.51
2022-08-11T07:17:23.639Z,22.54
2022-08-11T07:18:23.603Z,22.54
2022-08-11T07:19:23.577Z,22.65
2022-08-11T07:20:23.598Z,22.65
2022-08-11T07:22:01.444Z,22.70
2022-08-11T07:22:23.488Z,22.73
2022-08-11T07:23:23.464Z,22.75
2022-08-11T07:24:34.533Z,22.76
2022-08-11T07:25:23.407Z,22.83
2022-08-11T07:26:23.374Z,22.88
2022-08-11T07:27:23.350Z,22.99
2022-08-11T07:28:23.322Z,22.99
2022-08-11T07:29:23.294Z,23.02
2022-08-11T07:30:23.329Z,23.09
2022-08-11T07:31:23.239Z,23.15
2022-08-11T07:32:23.222Z,23.15
2022-08-11T07:34:07.093Z,23.21
2022-08-11T07:34:23.146Z,23.27
2022-08-11T07:35:23.130Z,23.34
2022-08-11T07:36:23.090Z,23.24
2022-08-11T07:37:23.067Z,23.37
2022-08-11T07:38:25.270Z,23.44
2022-08-11T07:39:23.104Z,23.51
2022-08-11T07:40:23.082Z,23.55
2022-08-11T07:41:22.951Z,23.58
2022-08-11T07:42:22.927Z,23.63
2022-08-11T07:43:22.901Z,23.77
2022-08-11T07:44:22.868Z,23.81
2022-08-11T07:45:22.846Z,23.83
2022-08-11T07:46:22.813Z,23.84
2022-08-11T07:47:22.787Z,23.95
2022-08-11T07:48:22.757Z,24.05
2022-08-11T07:49:22.727Z,23.98
2022-08-11T07:50:22.725Z,24.02
2022-08-11T07:51:22.673Z,24.10
2022-08-11T07:52:22.650Z,24.08
2022-08-11T07:53:22.616Z,24.16
2022-08-11T07:54:22.605Z,24.24
2022-08-11T07:55:50.187Z,24.29
2022-08-11T07:56:39.535Z,24.33
2022-08-11T07:58:00.185Z,24.33
2022-08-11T07:58:22.475Z,24.43
2022-08-11T07:59:22.448Z,24.50
2022-08-11T08:00:22.446Z,24.58
2022-08-11T08:01:22.901Z,24.51
2022-08-11T08:02:22.371Z,24.53
2022-08-11T08:03:22.343Z,24.53
2022-08-11T08:04:22.321Z,24.60
2022-08-11T08:05:22.288Z,24.65
2022-08-11T08:06:22.295Z,24.63
2022-08-11T08:07:22.232Z,24.70
2022-08-11T08:08:22.208Z,24.78
2022-08-11T08:09:22.171Z,24.91
2022-08-11T08:10:22.169Z,24.84
2022-08-11T08:11:27.582Z,24.88
2022-08-11T08:12:22.094Z,25.01
2022-08-11T08:13:22.073Z,25.03
2022-08-11T08:14:22.042Z,25.06
2022-08-11T08:15:22.014Z,25.04
2022-08-11T08:16:21.991Z,25.16
2022-08-11T08:17:21.955Z,25.18
2022-08-11T08:18:26.537Z,25.25
2022-08-11T08:19:22.125Z,25.21
2022-08-11T08:20:21.936Z,25.23
2022-08-11T08:21:21.853Z,25.31
2022-08-11T08:22:39.101Z,25.26
2022-08-11T08:23:21.791Z,25.36
2022-08-11T08:24:21.763Z,25.36
2022-08-11T08:25:21.740Z,25.53
2022-08-11T08:26:21.715Z,25.48
2022-08-11T08:27:21.685Z,25.53
2022-08-11T08:28:21.659Z,25.55
2022-08-11T08:29:21.632Z,25.59
2022-08-11T08:30:21.636Z,25.68
2022-08-11T08:31:21.578Z,25.69
2022-08-11T08:32:21.551Z,25.73
2022-08-11T08:33:21.524Z,25.77
2022-08-11T08:34:21.498Z,25.77
2022-08-11T08:35:21.465Z,25.80
2022-08-11T08:36:21.444Z,25.85
2022-08-11T08:37:46.730Z,25.93
2022-08-11T08:38:21.390Z,25.91
2022-08-11T08:39:21.411Z,26.00
2022-08-11T08:40:21.489Z,26.07
2022-08-11T08:41:21.388Z,26.09
2022-08-11T08:42:21.284Z,26.10
2022-08-11T08:43:21.255Z,26.05
2022-08-11T08:44:37.934Z,26.18
2022-08-11T08:45:21.200Z,26.22
2022-08-11T08:46:21.174Z,26.23
2022-08-11T08:47:41.761Z,26.33
2022-08-11T08:48:21.124Z,26.36
2022-08-11T08:49:21.099Z,26.38
2022-08-11T08:50:21.068Z,26.41
2022-08-11T08:51:21.958Z,26.48
2022-08-11T08:52:29.614Z,26.45
2022-08-11T08:53:20.990Z,26.56
2022-08-11T08:54:20.965Z,26.51
2022-08-11T08:55:20.950Z,26.63
2022-08-11T08:56:20.910Z,26.68
2022-08-11T08:57:20.885Z,26.70
2022-08-11T08:58:20.856Z,26.66
2022-08-11T08:59:20.835Z,26.70
2022-08-11T09:00:23.452Z,26.78
2022-08-11T09:01:20.877Z,26.77
2022-08-11T09:02:34.727Z,26.89
2022-08-11T09:03:40.978Z,26.84
2022-08-11T09:04:21.101Z,26.96
2022-08-11T09:05:20.679Z,26.93
2022-08-11T09:06:20.653Z,26.99
2022-08-11T09:07:20.637Z,27.08
2022-08-11T09:08:20.595Z,27.17
2022-08-11T09:09:20.576Z,27.20
2022-08-11T09:10:20.639Z,27.20
2022-08-11T09:11:20.517Z,27.25
2022-08-11T09:12:36.228Z,27.21
2022-08-11T09:13:20.472Z,27.25
2022-08-11T09:14:20.441Z,27.27
2022-08-11T09:15:20.415Z,27.32
2022-08-11T09:16:20.402Z,27.32
2022-08-11T09:17:20.364Z,27.36
2022-08-11T09:18:20.337Z,27.45
2022-08-11T09:19:20.315Z,27.47
2022-08-11T09:20:20.317Z,27.40
2022-08-11T09:21:39.287Z,27.44
2022-08-11T09:22:20.242Z,27.49
2022-08-11T09:24:26.132Z,27.59
2022-08-11T09:25:20.160Z,27.65
2022-08-11T09:26:20.134Z,27.63
2022-08-11T09:27:20.103Z,27.74
2022-08-11T09:28:20.076Z,27.77
2022-08-11T09:29:20.056Z,27.74
2022-08-11T09:30:20.053Z,27.86
2022-08-11T09:31:21.958Z,27.87
2022-08-11T09:32:19.976Z,27.90
2022-08-11T09:33:19.954Z,27.89
2022-08-11T09:34:19.928Z,27.92
2022-08-11T09:35:19.911Z,27.89
2022-08-11T09:36:19.876Z,27.95
2022-08-11T09:37:28.514Z,27.98
2022-08-11T09:38:19.827Z,28.08
2022-08-11T09:39:19.902Z,28.14
2022-08-11T09:40:19.801Z,28.23
2022-08-11T09:41:19.757Z,28.19
2022-08-11T09:42:23.169Z,28.30
2022-08-11T09:43:19.697Z,28.39
2022-08-11T09:44:19.675Z,28.35
2022-08-11T09:45:19.689Z,28.44
2022-08-11T09:46:19.620Z,28.48
2022-08-11T09:47:19.602Z,28.49
2022-08-11T09:48:19.571Z,28.38
2022-08-11T09:49:19.550Z,28.47
2022-08-11T09:50:19.594Z,28.57
2022-08-11T09:51:19.503Z,28.57
2022-08-11T09:52:19.470Z,28.70
2022-08-11T09:53:35.954Z,28.74
2022-08-11T09:54:19.429Z,28.67
2022-08-11T09:55:19.397Z,28.70
2022-08-11T09:56:19.369Z,28.75
2022-08-11T09:57:19.347Z,28.86
2022-08-11T09:58:42.872Z,28.86
2022-08-11T09:59:19.298Z,28.96
2022-08-11T10:00:19.305Z,28.94
2022-08-11T10:01:19.354Z,29.07
2022-08-11T10:02:19.222Z,29.17
2022-08-11T10:03:19.197Z,29.12
2022-08-11T10:04:19.174Z,29.29
2022-08-11T10:05:19.149Z,29.24
2022-08-11T10:06:19.125Z,29.32
2022-08-11T10:07:19.105Z,29.26
2022-08-11T10:08:19.078Z,29.35
2022-08-11T10:09:19.079Z,29.38
2022-08-11T10:10:19.027Z,29.42
2022-08-11T10:11:19.002Z,29.49
2022-08-11T10:12:18.978Z,29.57
2022-08-11T10:14:30.375Z,29.57
2022-08-11T10:14:34.017Z,29.53
2022-08-11T10:15:18.905Z,29.51
2022-08-11T10:16:18.877Z,29.61
2022-08-11T10:17:18.860Z,29.61
2022-08-11T10:18:18.825Z,29.57
2022-08-11T10:19:18.804Z,29.57
2022-08-11T10:20:22.641Z,29.63
2022-08-11T10:21:18.751Z,29.71
2022-08-11T10:22:18.729Z,29.68
2022-08-11T10:23:18.706Z,29.72
2022-08-11T10:24:18.680Z,29.82
2022-08-11T10:25:19.846Z,29.86
2022-08-11T10:26:18.633Z,29.87
2022-08-11T10:27:18.607Z,30.00
2022-08-11T10:28:33.616Z,29.95
2022-08-11T10:29:18.907Z,30.05
2022-08-11T10:30:18.535Z,30.09
2022-08-11T10:31:18.515Z,30.12
2022-08-11T10:32:18.485Z,30.16
2022-08-11T10:33:18.965Z,30.23
2022-08-11T10:34:18.432Z,30.24
2022-08-11T10:35:18.433Z,30.25
2022-08-11T10:36:18.389Z,30.37
2022-08-11T10:37:18.393Z,30.39
2022-08-11T10:38:18.452Z,30.51
2022-08-11T10:39:18.419Z,30.63
2022-08-11T10:40:18.330Z,30.77
2022-08-11T10:41:18.264Z,30.85
2022-08-11T10:42:35.072Z,30.88
2022-08-11T10:44:01.229Z,30.94
2022-08-11T10:44:18.193Z,31.15
2022-08-11T10:45:18.171Z,31.12
2022-08-11T10:46:18.150Z,31.24
2022-08-11T10:47:18.124Z,31.22
2022-08-11T10:48:18.101Z,31.37
2022-08-11T10:49:18.081Z,31.46
2022-08-11T10:50:18.056Z,31.49
2022-08-11T10:51:50.455Z,31.70
2022-08-11T10:52:18.016Z,31.71
2022-08-11T10:53:17.991Z,31.74
2022-08-11T10:54:17.965Z,31.93
2022-08-11T10:55:17.948Z,31.97
2022-08-11T10:56:17.926Z,32.00
2022-08-11T10:57:17.895Z,32.12
2022-08-11T10:58:17.878Z,32.27
2022-08-11T10:59:17.860Z,32.18
2022-08-11T11:00:17.834Z,32.40
2022-08-11T11:01:17.883Z,32.51
2022-08-11T11:02:17.787Z,32.63
2022-08-11T11:03:22.817Z,32.75
2022-08-11T11:04:17.743Z,32.96
2022-08-11T11:05:17.720Z,33.05
2022-08-11T11:06:28.183Z,33.17
2022-08-11T11:07:17.764Z,33.24
2022-08-11T11:08:17.658Z,33.46
2022-08-11T11:09:17.635Z,33.65
2022-08-11T11:10:17.616Z,33.69
2022-08-11T11:11:18.331Z,33.77
2022-08-11T11:12:17.571Z,33.92
2022-08-11T11:13:17.549Z,33.99
2022-08-11T11:14:17.530Z,34.11
2022-08-11T11:15:18.104Z,34.30
2022-08-11T11:16:17.489Z,34.40
2022-08-11T11:17:17.472Z,34.54
2022-08-11T11:18:17.462Z,34.61
2022-08-11T11:19:17.440Z,34.80
2022-08-11T11:20:34.718Z,34.88
2022-08-11T11:21:17.392Z,34.90
2022-08-11T11:22:17.370Z,35.00
2022-08-11T11:23:17.352Z,35.27
2022-08-11T11:24:17.327Z,35.37
2022-08-11T11:25:17.315Z,35.55
2022-08-11T11:26:17.289Z,35.55
2022-08-11T11:27:17.270Z,35.63
2022-08-11T11:28:17.253Z,35.78
2022-08-11T11:29:17.235Z,35.86
2022-08-11T11:30:17.209Z,35.92
2022-08-11T11:31:17.193Z,36.08
2022-08-11T11:32:17.179Z,36.16
2022-08-11T11:33:17.154Z,36.08
2022-08-11T11:34:17.135Z,36.18
2022-08-11T11:35:17.119Z,36.14
2022-08-11T11:36:17.101Z,36.25
2022-08-11T11:37:17.097Z,36.30
2022-08-11T11:38:17.059Z,36.36
2022-08-11T11:39:17.075Z,36.51
2022-08-11T11:40:17.023Z,36.54
2022-08-11T11:41:17.008Z,36.59
2022-08-11T11:42:16.994Z,36.58
2022-08-11T11:43:16.971Z,36.74
2022-08-11T11:44:16.958Z,36.86
2022-08-11T11:45:24.104Z,36.91
2022-08-11T11:46:16.923Z,37.07
2022-08-11T11:47:16.899Z,37.21
2022-08-11T11:48:16.884Z,37.28
2022-08-11T11:49:17.520Z,37.53
2022-08-11T11:50:16.844Z,37.49
2022-08-11T11:51:16.829Z,37.51
2022-08-11T11:52:16.815Z,37.58
2022-08-11T11:53:16.796Z,37.72
2022-08-11T11:54:16.771Z,37.84
2022-08-11T11:55:16.779Z,37.93
2022-08-11T11:56:16.741Z,38.11
2022-08-11T11:57:16.726Z,38.21
2022-08-11T11:58:18.620Z,38.31
2022-08-11T11:59:16.690Z,38.45
2022-08-11T12:00:16.678Z,38.43
2022-08-11T12:01:16.655Z,38.45
2022-08-11T12:02:16.637Z,38.64
2022-08-11T12:03:16.705Z,38.69
2022-08-11T12:04:16.603Z,38.67
2022-08-11T12:05:16.587Z,38.82
2022-08-11T12:06:16.573Z,38.92
2022-08-11T12:07:16.556Z,39.04
2022-08-11T12:08:16.553Z,39.29
2022-08-11T12:09:16.520Z,39.36
2022-08-11T12:10:16.504Z,39.33
2022-08-11T12:11:16.489Z,39.41
2022-08-11T12:12:16.470Z,39.53
2022-08-11T12:13:16.456Z,39.72
2022-08-11T12:14:16.436Z,39.93
2022-08-11T12:15:16.438Z,39.59
2022-08-11T12:16:33.990Z,39.72
2022-08-11T12:17:16.388Z,39.81
2022-08-11T12:18:16.368Z,39.94
2022-08-11T12:19:16.353Z,39.94
2022-08-11T12:20:33.415Z,40.08
2022-08-11T12:21:16.324Z,40.26
2022-08-11T12:22:16.308Z,40.26
2022-08-11T12:23:16.292Z,40.49
2022-08-11T12:24:16.273Z,40.53
2022-08-11T12:25:16.258Z,40.72
2022-08-11T12:26:26.771Z,40.73
2022-08-11T12:27:17.622Z,40.65
2022-08-11T12:28:16.208Z,40.72
2022-08-11T12:29:16.197Z,40.81
2022-08-11T12:30:16.174Z,40.81
2022-08-11T12:31:16.163Z,40.97
2022-08-11T12:32:16.141Z,40.78
2022-08-11T12:33:16.128Z,40.87
2022-08-11T12:34:16.112Z,40.92
2022-08-11T12:35:16.099Z,41.02
2022-08-11T12:36:16.085Z,41.18
2022-08-11T12:37:16.073Z,41.21
2022-08-11T12:38:16.048Z,41.22
2022-08-11T12:39:24.336Z,41.33
2022-08-11T12:40:49.706Z,41.40
2022-08-11T12:41:16.769Z,41.26
2022-08-11T12:42:15.982Z,41.29
2022-08-11T12:43:21.697Z,41.52
2022-08-11T12:44:15.952Z,41.75
2022-08-11T12:45:22.243Z,41.85
2022-08-11T12:46:15.926Z,41.94
2022-08-11T12:47:15.905Z,41.72
2022-08-11T12:48:57.795Z,41.78
2022-08-11T12:49:15.883Z,41.72
2022-08-11T12:50:22.917Z,41.83
2022-08-11T12:51:15.844Z,41.77
2022-08-11T12:52:15.982Z,41.94
2022-08-11T12:53:15.811Z,41.82